Time;durP1;ratioP1;P1;durP2;ratioP2;P2;SDS_P1;SDS_P2;PMS_P1;PMS_P2;Temp;Humidity;BMP_temperature;BMP_pressure;BME280_temperature;BME280_humidity;BME280_pressure;Samples;Min_cycle;Max_cycle;Signal;HPM_P1;HPM_P2
2021/11/08 00:05:07;;;;;;;;;;;7.40;84.40;;;;;;20825766;28;75649;-66
2021/11/08 00:15:12;;;;;;;;;;;7.40;84.50;;;;;;20825089;28;75287;-66
2021/11/08 00:25:14;;;;;;;;;;;7.20;83.30;;;;;;20824768;28;75812;-65
2021/11/08 00:35:15;;;;;;;;;;;7.20;83.90;;;;;;20823544;28;75644;-65
2021/11/08 00:45:17;;;;;;;;;;;7.10;84.60;;;;;;20822681;28;75726;-65
2021/11/08 00:55:19;;;;;;;;;;;7.00;84.70;;;;;;20824343;28;77026;-65
2021/11/08 01:05:21;;;;;;;;;;;6.90;84.60;;;;;;20822686;28;76554;-65
2021/11/08 01:15:22;;;;;;;;;;;6.60;85.00;;;;;;20822704;28;76790;-66
2021/11/08 01:25:24;;;;;;;;;;;6.40;85.10;;;;;;20822526;28;75671;-65
2021/11/08 01:35:32;;;;;;;;;;;6.40;85.30;;;;;;20821214;28;75710;-65
2021/11/08 01:45:35;;;;;;;;;;;6.20;84.70;;;;;;20821527;28;75710;-65
2021/11/08 01:55:37;;;;;;;;;;;6.10;85.30;;;;;;20833449;28;77068;-65
2021/11/08 02:05:39;;;;;;;;;;;6.00;85.60;;;;;;20833479;28;76814;-65
2021/11/08 02:15:41;;;;;;;;;;;5.90;86.20;;;;;;20832669;28;75616;-65
2021/11/08 02:25:48;;;;;;;;;;;5.90;86.50;;;;;;20834015;28;75802;-65
2021/11/08 02:35:52;;;;;;;;;;;5.80;86.40;;;;;;20832479;28;76930;-65
2021/11/08 02:56:11;;;;;;;;;;;5.70;86.80;;;;;;20830838;28;75701;-65
2021/11/08 03:16:39;;;;;;;;;;;5.50;86.50;;;;;;20829117;28;74541;-65
2021/11/08 03:26:55;;;;;;;;;;;5.40;86.50;;;;;;20828872;28;75780;-65
2021/11/08 03:37:17;;;;;;;;;;;5.40;86.90;;;;;;20827855;28;75134;-65
2021/11/08 03:47:39;;;;;;;;;;;5.40;87.30;;;;;;20826867;28;77237;-65
2021/11/08 03:58:00;;;;;;;;;;;5.20;87.20;;;;;;20826251;28;77280;-65
2021/11/08 04:08:19;;;;;;;;;;;5.10;87.20;;;;;;20825400;28;75530;-65
2021/11/08 04:18:33;;;;;;;;;;;5.00;87.40;;;;;;20825576;28;75445;-65
2021/11/08 04:28:52;;;;;;;;;;;4.90;87.60;;;;;;20824037;28;74703;-65
2021/11/08 04:50:10;;;;;;;;;;;4.90;88.10;;;;;;20824518;28;78257;-65
2021/11/08 05:31:51;;;;;;;;;;;4.50;88.20;;;;;;20837071;28;76956;-65
2021/11/08 05:41:56;;;;;;;;;;;4.40;88.00;;;;;;20834934;28;75724;-65
2021/11/08 05:51:59;;;;;;;;;;;4.40;88.30;;;;;;20834363;28;75664;-65
2021/11/08 06:53:54;;;;;;;;;;;4.40;87.80;;;;;;20832395;28;77009;-64
2021/11/08 07:03:56;;;;;;;;;;;4.20;87.80;;;;;;20830206;28;76976;-62
2021/11/08 07:13:58;;;;;;;;;;;4.40;88.30;;;;;;20829577;28;76540;-60
2021/11/08 07:24:00;;;;;;;;;;;4.30;86.80;;;;;;20830573;28;76799;-64
2021/11/08 07:34:04;;;;;;;;;;;4.30;87.50;;;;;;20828828;28;76614;-63
2021/11/08 07:44:08;;;;;;;;;;;4.70;88.20;;;;;;20828892;28;76854;-60
2021/11/08 07:54:11;;;;;;;;;;;5.10;87.90;;;;;;20827480;28;75710;-60
2021/11/08 08:04:13;;;;;;;;;;;5.40;87.90;;;;;;20826578;28;75620;-63
2021/11/08 08:14:16;;;;;;;;;;;5.70;87.40;;;;;;20826370;28;75637;-61
2021/11/08 08:24:19;;;;;;;;;;;6.30;87.30;;;;;;20826078;28;75992;-62
2021/11/08 08:34:22;;;;;;;;;;;6.70;86.20;;;;;;20825146;28;74617;-63
2021/11/08 08:44:26;;;;;;;;;;;7.30;86.10;;;;;;20826173;28;75636;-60
2021/11/08 08:54:32;;;;;;;;;;;7.90;85.40;;;;;;20824902;28;75537;-61
2021/11/08 09:04:33;;;;;;;;;;;8.40;84.40;;;;;;20837825;28;74505;-64
2021/11/08 09:14:38;;;;;;;;;;;8.70;84.20;;;;;;20838361;28;75709;-63
2021/11/08 09:24:41;;;;;;;;;;;10.90;78.50;;;;;;20838216;28;74687;-64
2021/11/08 09:34:48;;;;;;;;;;;12.60;79.60;;;;;;20837049;28;76431;-61
2021/11/08 09:44:52;;;;;;;;;;;13.00;72.70;;;;;;20836893;28;75604;-63
2021/11/08 09:54:56;;;;;;;;;;;12.90;75.60;;;;;;20836170;28;77014;-61
2021/11/08 10:04:59;;;;;;;;;;;12.90;76.40;;;;;;20835138;28;75655;-63
2021/11/08 10:15:01;;;;;;;;;;;14.10;77.40;;;;;;20833045;28;75872;-61
2021/11/08 10:25:03;;;;;;;;;;;27.20;44.20;;;;;;20833267;28;76743;-60
2021/11/08 10:35:08;;;;;;;;;;;31.70;34.60;;;;;;20833192;28;76728;-59
2021/11/08 10:45:21;;;;;;;;;;;32.90;35.70;;;;;;20831312;28;75853;-60
2021/11/08 10:55:29;;;;;;;;;;;34.90;34.50;;;;;;20831780;28;74707;-59
2021/11/08 11:05:37;;;;;;;;;;;36.30;33.60;;;;;;20831491;28;75841;-61
2021/11/08 11:15:40;;;;;;;;;;;37.70;31.70;;;;;;20830947;28;75755;-61
2021/11/08 11:25:49;;;;;;;;;;;38.90;32.60;;;;;;20829891;28;76674;-61
2021/11/08 11:36:01;;;;;;;;;;;38.50;29.80;;;;;;20828917;28;76279;-61
2021/11/08 11:46:06;;;;;;;;;;;39.80;35.20;;;;;;20885423;28;75373;-59
2021/11/08 11:56:09;;;;;;;;;;;41.60;31.90;;;;;;20909266;27;75701;-62
2021/11/08 12:06:11;;;;;;;;;;;39.70;29.00;;;;;;20907137;28;76765;-59
2021/11/08 12:16:15;;;;;;;;;;;39.90;32.00;;;;;;20908475;28;76748;-60
2021/11/08 12:26:21;;;;;;;;;;;32.60;44.10;;;;;;20909231;27;75595;-61
2021/11/08 12:36:23;;;;;;;;;;;30.90;48.80;;;;;;20909414;27;75855;-60
2021/11/08 12:46:27;;;;;;;;;;;31.80;42.70;;;;;;20911479;28;77862;-63
2021/11/08 12:56:30;;;;;;;;;;;32.20;55.20;;;;;;20908130;28;75573;-60
2021/11/08 13:06:34;;;;;;;;;;;25.90;53.20;;;;;;20906006;28;75628;-60
2021/11/08 13:16:36;;;;;;;;;;;30.20;48.90;;;;;;20905259;28;75554;-63
2021/11/08 13:26:47;;;;;;;;;;;29.30;32.70;;;;;;20906067;28;75495;-66
2021/11/08 13:36:48;;;;;;;;;;;28.80;48.70;;;;;;20904063;27;75514;-64
2021/11/08 13:46:52;;;;;;;;;;;31.70;46.70;;;;;;20911999;27;75816;-62
2021/11/08 13:57:05;;;;;;;;;;;30.20;50.00;;;;;;20918461;28;75520;-63
2021/11/08 14:07:07;;;;;;;;;;;28.90;40.10;;;;;;20917899;27;75501;-60
2021/11/08 14:17:19;;;;;;;;;;;34.20;36.80;;;;;;20917755;28;74691;-62
2021/11/08 14:27:23;;;;;;;;;;;32.40;44.70;;;;;;20916905;27;76016;-59
2021/11/08 14:37:36;;;;;;;;;;;32.40;50.10;;;;;;20915813;27;75510;-63
2021/11/08 14:47:38;;;;;;;;;;;27.50;53.30;;;;;;20916039;28;76684;-59
2021/11/08 14:57:41;;;;;;;;;;;23.80;65.70;;;;;;20914732;27;75936;-62
2021/11/08 15:07:45;;;;;;;;;;;22.10;55.50;;;;;;20912965;28;76760;-64
2021/11/08 15:17:55;;;;;;;;;;;21.00;71.40;;;;;;20913233;28;76796;-60
2021/11/08 15:28:09;;;;;;;;;;;20.20;40.90;;;;;;20913462;28;75977;-63
2021/11/08 15:38:14;;;;;;;;;;;19.90;67.90;;;;;;20912557;28;76588;-61
2021/11/08 15:48:20;;;;;;;;;;;19.50;66.50;;;;;;20911522;27;74672;-61
2021/11/08 15:58:22;;;;;;;;;;;19.30;68.90;;;;;;20910669;27;74653;-62
2021/11/08 16:08:24;;;;;;;;;;;18.90;66.40;;;;;;20911440;27;76887;-63
2021/11/08 16:18:27;;;;;;;;;;;18.60;65.80;;;;;;20909806;28;75551;-61
2021/11/08 16:28:29;;;;;;;;;;;18.30;63.10;;;;;;20909841;27;75684;-64
2021/11/08 16:38:33;;;;;;;;;;;18.00;66.00;;;;;;20908440;27;75657;-61
2021/11/08 16:48:36;;;;;;;;;;;17.70;61.60;;;;;;20906826;28;75993;-60
2021/11/08 16:58:41;;;;;;;;;;;17.40;63.90;;;;;;20907158;27;76619;-64
2021/11/08 17:18:46;;;;;;;;;;;16.80;67.00;;;;;;20909263;27;75839;-64
2021/11/08 17:28:49;;;;;;;;;;;16.40;68.40;;;;;;20922870;28;76827;-61
2021/11/08 17:38:51;;;;;;;;;;;16.10;68.30;;;;;;20920245;27;75777;-72
2021/11/08 17:49:02;;;;;;;;;;;15.50;69.20;;;;;;20918008;28;75741;-72
2021/11/08 17:59:04;;;;;;;;;;;15.00;69.80;;;;;;20917814;28;74575;-73
2021/11/08 18:09:08;;;;;;;;;;;14.70;70.30;;;;;;20917288;27;74551;-75
2021/11/08 18:19:11;;;;;;;;;;;14.50;71.90;;;;;;20916648;27;75631;-74
2021/11/08 18:29:14;;;;;;;;;;;14.20;72.80;;;;;;20913425;28;74545;-73
2021/11/08 18:39:36;;;;;;;;;;;13.90;73.60;;;;;;20916210;27;74815;-73
2021/11/08 18:49:38;;;;;;;;;;;13.60;74.20;;;;;;20915092;28;76176;-75
2021/11/08 18:59:40;;;;;;;;;;;13.40;74.50;;;;;;20913970;27;75479;-74
2021/11/08 19:09:44;;;;;;;;;;;13.10;75.20;;;;;;20914240;27;75990;-74
2021/11/08 19:19:46;;;;;;;;;;;13.00;75.10;;;;;;20912792;28;76860;-73
2021/11/08 19:29:54;;;;;;;;;;;12.90;72.30;;;;;;20912626;27;75428;-75
2021/11/08 19:39:56;;;;;;;;;;;12.90;72.50;;;;;;20911246;27;74770;-74
2021/11/08 19:49:58;;;;;;;;;;;12.80;72.90;;;;;;20912106;27;75533;-74
2021/11/08 20:00:01;;;;;;;;;;;12.60;73.20;;;;;;20910528;28;76927;-75
2021/11/08 20:10:03;;;;;;;;;;;12.40;74.00;;;;;;20909417;28;75903;-75
2021/11/08 20:20:06;;;;;;;;;;;12.30;74.90;;;;;;20909226;27;76143;-75
2021/11/08 20:30:12;;;;;;;;;;;12.30;74.80;;;;;;20907376;28;75634;-77
2021/11/08 20:40:19;;;;;;;;;;;12.10;75.70;;;;;;20907678;28;76901;-76
2021/11/08 21:20:57;;;;;;;;;;;11.40;78.40;;;;;;20907622;28;76862;-76
2021/11/08 21:41:07;;;;;;;;;;;10.90;78.70;;;;;;20905828;28;76436;-74
2021/11/08 21:51:12;;;;;;;;;;;10.70;78.70;;;;;;20904468;27;74569;-77
2021/11/08 22:01:14;;;;;;;;;;;10.60;78.40;;;;;;20903306;28;76748;-76
2021/11/08 22:11:16;;;;;;;;;;;10.50;76.20;;;;;;20915711;28;76683;-74
2021/11/08 22:21:19;;;;;;;;;;;10.50;76.00;;;;;;20917700;27;76282;-76
2021/11/08 22:31:22;;;;;;;;;;;10.40;78.80;;;;;;20915597;28;76087;-73
2021/11/08 22:41:24;;;;;;;;;;;10.30;74.70;;;;;;20898727;28;77084;-73
2021/11/08 22:51:27;;;;;;;;;;;10.30;78.00;;;;;;20915678;28;76945;-75
2021/11/08 23:01:29;;;;;;;;;;;10.20;78.90;;;;;;20913366;27;75613;-75
2021/11/08 23:11:34;;;;;;;;;;;10.00;78.90;;;;;;20914187;27;74693;-75
2021/11/08 23:21:37;;;;;;;;;;;9.90;76.80;;;;;;20913194;28;75696;-74
2021/11/08 23:31:38;;;;;;;;;;;9.70;78.50;;;;;;20912321;27;74513;-74
2021/11/08 23:41:40;;;;;;;;;;;9.60;76.00;;;;;;20912429;27;76247;-75
2021/11/08 23:51:42;;;;;;;;;;;9.50;79.90;;;;;;20913032;27;75876;-75
